Latest Weather Observations for Geraldton Airport

IDW60801

Issued at 11:03 am WST Tuesday 31 March 2015 (issued every 30 minutes, with the page automatically refreshed every 10 minutes)

About weather observations | Map of weather stations | Latest weather observations for WA | Other Formats
Station Details ID: 008315 Name: GERALDTON AIRPORT Lat: -28.80 Lon: 114.70 Height: 29.7 m
Data from the previous 72 hours. | See also: Recent months at Geraldton Airport
Date/Time
WST
Temp
°C
App
Temp
°C
Dew
Point
Rel
Hum
%
Delta-T
°C
Wind Press
QNH
hPa
Press
MSL
hPa
Rain
since 9 am
mm
Dir
 
Spd
km/h
Gust
km/h
Spd
kts
Gust
kts
31/11:00am 23.0 22.4 18.4 75 2.9 SSE 19 24 10 13 1018.0 - 0.0
31/10:30am 22.1 21.9 18.5 80 2.3 SSE 17 20 9 11 1018.1 - 0.0
31/10:00am 21.9 22.4 19.2 85 1.7 SSE 15 19 8 10 1018.0 - 0.0
31/09:30am 20.9 22.6 19.3 90 1.0 S 9 11 5 6 1018.0 - 0.0
31/09:00am 20.1 21.9 18.3 89 1.1 SSE 6 9 3 5 1018.1 1018.1 14.8
31/08:30am 19.7 21.7 17.9 89 1.1 SSW 4 9 2 5 1017.8 - 14.8
31/08:00am 19.5 20.8 17.6 89 1.2 SSE 7 9 4 5 1017.6 - 14.4
31/07:30am 19.6 21.8 18.4 93 0.7 S 4 9 2 5 1017.4 - 13.6
31/07:00am 19.5 22.5 18.4 93 0.7 CALM 0 0 0 0 1017.0 - 13.2
31/06:30am 19.3 20.8 18.1 93 0.7 ESE 7 9 4 5 1016.9 - 12.6
31/06:00am 19.4 21.1 18.5 94 0.6 E 7 9 4 5 1016.7 1016.6 11.0
31/05:31am 19.5 20.9 18.6 94 0.6 E 9 11 5 6 1016.3 - 9.0
31/05:30am 19.5 20.9 18.6 94 0.6 E 9 11 5 6 1016.3 - 8.8
31/05:04am 19.4 20.7 18.5 94 0.6 SE 9 11 5 6 1016.1 - 7.0
31/05:00am 19.4 20.6 18.3 93 0.7 SE 9 13 5 7 1016.1 - 6.6
31/04:53am 19.3 19.7 18.2 93 0.7 SE 13 17 7 9 1015.9 - 6.2
31/04:37am 19.1 18.9 17.7 92 0.9 SSE 15 17 8 9 1015.8 - 5.2
31/04:30am 19.1 18.9 17.5 90 1.0 SSE 15 20 8 11 1015.8 - 4.2
31/04:23am 19.3 18.8 17.0 86 1.4 SSE 15 20 8 11 1015.8 - 3.6
31/04:04am 19.7 20.7 18.7 94 0.6 SSE 11 15 6 8 1015.6 - 1.8
31/04:00am 19.9 21.0 18.9 94 0.6 SSE 11 13 6 7 1015.5 - 1.2
31/03:30am 20.0 21.3 18.5 91 0.9 SE 9 11 5 6 1015.4 - 0.8
31/03:00am 19.9 21.2 18.5 92 0.9 SE 9 9 5 5 1015.4 1015.3 0.8
31/02:30am 19.9 21.6 18.5 92 0.9 ESE 7 9 4 5 1015.3 - 0.8
31/02:00am 20.0 21.3 18.4 90 1.0 SE 9 9 5 5 1015.4 - 0.8
31/01:30am 20.1 21.8 18.4 90 1.1 SSE 7 9 4 5 1015.3 - 0.8
31/01:00am 20.0 22.3 18.6 92 0.9 S 4 7 2 4 1015.9 - 0.8
31/12:30am 20.2 21.9 18.5 90 1.1 SSE 7 9 4 5 1016.1 - 0.8
31/12:00am 20.4 21.3 18.5 89 1.2 SSE 11 11 6 6 1016.1 1016.0 0.8
 
Date/Time
WST
Temp
°C
App
Temp
°C
Dew
Point
Rel
Hum
%
Delta-T
°C
Wind Press
QNH
hPa
Press
MSL
hPa
Rain
since 9 am
mm
Dir
 
Spd
km/h
Gust
km/h
Spd
kts
Gust
kts
30/11:30pm 20.5 21.6 18.8 90 1.1 SSE 11 13 6 7 1016.3 - 0.8
30/11:00pm 20.7 22.6 19.0 90 1.1 SSE 7 9 4 5 1016.7 - 0.8
30/10:30pm 20.9 22.5 19.2 90 1.1 SSE 9 9 5 5 1017.0 - 0.8
30/10:00pm 21.0 23.2 19.1 89 1.2 ESE 6 7 3 4 1017.2 - 0.8
30/09:30pm 21.0 23.3 19.4 90 1.0 ESE 6 7 3 4 1017.4 - 0.8
30/09:00pm 21.0 23.2 19.6 92 0.9 SSE 7 9 4 5 1017.6 1017.5 0.8
30/08:30pm 21.1 23.4 19.4 90 1.1 SSE 6 7 3 4 1017.5 - 0.8
30/08:00pm 21.0 22.7 19.4 90 1.0 ESE 9 11 5 6 1017.1 - 0.8
30/07:30pm 21.3 23.5 19.6 90 1.1 SSE 7 9 4 5 1016.7 - 0.8
30/07:00pm 21.4 22.9 19.7 90 1.1 S 11 13 6 7 1016.3 - 0.8
30/06:30pm 21.6 23.8 19.5 88 1.3 S 7 9 4 5 1016.2 - 0.8
30/06:00pm 21.9 24.2 19.4 86 1.6 SW 6 7 3 4 1016.3 1016.2 0.8
30/05:30pm 22.2 24.2 18.8 81 2.1 SSE 6 7 3 4 1016.2 - 0.8
30/05:00pm 22.4 23.5 18.0 76 2.7 SE 9 11 5 6 1016.2 - 0.8
30/04:30pm 22.8 24.2 17.8 73 3.1 S 7 9 4 5 1016.4 - 0.8
30/04:00pm 22.9 24.0 17.2 70 3.5 S 7 9 4 5 1016.5 - 0.8
30/03:30pm 22.8 24.1 17.6 72 3.2 S 7 9 4 5 1016.2 - 0.8
30/03:00pm 22.7 24.1 17.9 74 3.0 SW 7 11 4 6 1016.1 1016.0 0.8
30/02:30pm 22.7 24.1 17.8 74 3.0 WSW 7 9 4 5 1015.7 - 0.8
30/02:00pm 22.2 23.9 18.6 80 2.3 NNE 7 11 4 6 1015.7 - 0.8
30/01:30pm 21.7 22.0 18.0 79 2.3 N 13 15 7 8 1016.1 - 0.6
30/01:00pm 22.0 22.0 18.0 78 2.5 N 15 17 8 9 1016.5 - 0.2
30/12:30pm 23.2 22.5 16.3 65 4.2 NNW 15 20 8 11 1016.8 - 0.0
30/12:00pm 23.8 21.8 14.9 57 5.3 NNW 19 20 10 11 1017.1 1017.0 0.0
30/11:30am 24.0 21.3 13.0 50 6.4 NNW 19 24 10 13 1017.3 - 0.0
30/11:00am 23.8 22.5 14.9 57 5.3 NNW 15 20 8 11 1017.5 - 0.0
30/10:30am 23.6 22.5 15.3 59 5.0 NNW 15 17 8 9 1017.6 - 0.0
30/10:00am 23.0 22.3 15.5 62 4.5 NNW 13 17 7 9 1017.7 - 0.0
30/09:30am 22.1 22.1 15.1 64 4.2 NNW 9 13 5 7 1017.8 - 0.0
30/09:00am 21.4 21.7 15.0 67 3.8 N 7 9 4 5 1017.6 1017.5 0.0
30/08:30am 20.6 18.3 14.6 68 3.5 N 20 28 11 15 1017.8 - 0.0
30/08:07am 18.4 14.2 14.7 79 2.1 NNE 30 48 16 26 1017.5 - 0.0
30/08:00am 18.4 19.4 15.3 82 1.8 NNW 4 9 2 5 1016.6 - 0.0
30/07:30am 17.6 19.3 15.1 85 1.5 CALM 0 0 0 0 1016.1 - 0.0
30/07:00am 16.6 17.8 15.0 90 0.9 NW 2 6 1 3 1015.8 - 0.0
30/06:30am 16.4 16.7 14.5 88 1.1 N 6 7 3 4 1015.5 - 0.0
30/06:00am 16.4 16.1 14.4 88 1.1 N 9 11 5 6 1015.3 1015.2 0.0
30/05:30am 16.2 15.9 14.3 88 1.1 N 9 13 5 7 1014.8 - 0.0
30/05:00am 16.1 16.2 14.4 90 1.0 NNE 7 13 4 7 1014.6 - 0.0
30/04:30am 15.6 15.9 14.4 93 0.7 E 6 9 3 5 1014.1 - 0.0
30/04:00am 15.7 15.8 14.0 90 1.0 ENE 6 7 3 4 1014.2 - 0.0
30/03:30am 15.8 17.2 14.4 91 0.8 CALM 0 0 0 0 1014.3 - 0.0
30/03:00am 16.7 16.4 14.3 86 1.4 N 9 13 5 7 1014.5 1014.4 0.0
30/02:30am 17.0 16.2 15.1 88 1.1 NNE 13 15 7 8 1014.6 - 0.0
30/02:04am 16.0 16.4 15.2 95 0.5 E 7 9 4 5 1014.5 - 0.0
30/02:00am 16.1 16.5 15.4 96 0.4 E 7 9 4 5 1014.4 - 0.0
30/01:41am 16.6 17.8 15.9 96 0.4 ENE 4 7 2 4 1014.7 - 0.0
30/01:30am 16.7 18.7 16.0 96 0.4 CALM 0 0 0 0 1014.8 - 0.0
30/01:00am 16.2 16.6 15.2 94 0.6 NE 7 9 4 5 1015.1 - 0.0
30/12:30am 17.2 18.1 16.0 93 0.7 NE 6 7 3 4 1015.4 - 0.0
30/12:00am 17.6 18.7 16.5 93 0.7 E 6 9 3 5 1015.5 1015.4 0.0
 
Date/Time
WST
Temp
°C
App
Temp
°C
Dew
Point
Rel
Hum
%
Delta-T
°C
Wind Press
QNH
hPa
Press
MSL
hPa
Rain
since 9 am
mm
Dir
 
Spd
km/h
Gust
km/h
Spd
kts
Gust
kts
29/11:30pm 18.5 21.0 17.2 92 0.8 CALM 0 6 0 3 1015.7 - 0.0
29/11:00pm 19.0 20.9 17.7 92 0.8 NNW 4 9 2 5 1016.0 - 0.0
29/10:30pm 18.8 21.4 17.4 91 0.9 CALM 0 4 0 2 1016.3 - 0.0
29/10:00pm 19.5 20.9 17.9 90 1.0 SE 7 9 4 5 1016.4 - 0.0
29/09:30pm 20.0 21.2 18.2 89 1.1 SSE 9 11 5 6 1016.7 - 0.0
29/09:00pm 20.3 21.2 18.4 89 1.2 SSE 11 13 6 7 1016.7 1016.6 0.0
29/08:30pm 20.8 22.2 18.6 87 1.4 SSE 9 11 5 6 1016.5 - 0.0
29/08:00pm 21.6 22.3 18.8 84 1.8 SSE 13 17 7 9 1016.3 - 0.0
29/07:30pm 22.2 22.2 18.9 81 2.1 SSE 17 22 9 12 1016.2 - 0.0
29/07:00pm 22.5 21.9 18.4 77 2.6 SSE 19 20 10 11 1016.1 - 0.0
29/06:30pm 23.2 22.2 18.0 72 3.3 S 20 24 11 13 1016.1 - 0.0
29/06:00pm 24.2 22.5 17.3 65 4.3 S 22 26 12 14 1016.0 1015.9 0.0
29/05:30pm 25.4 23.3 16.3 57 5.6 S 22 28 12 15 1015.8 - 0.0
29/05:00pm 26.6 23.9 14.6 47 7.2 S 22 26 12 14 1015.7 - 0.0
29/04:30pm 26.9 24.0 14.1 45 7.6 S 22 28 12 15 1015.5 - 0.0
29/04:00pm 27.3 24.9 14.3 45 7.8 SSW 20 24 11 13 1015.4 - 0.0
29/03:30pm 27.7 24.6 14.4 44 8.0 SW 24 28 13 15 1015.5 - 0.0
29/03:00pm 28.5 25.8 14.5 42 8.4 SW 22 28 12 15 1015.6 1015.5 0.0
29/02:30pm 28.7 25.4 13.9 40 8.9 SW 24 30 13 16 1015.5 - 0.0
29/02:00pm 30.0 26.3 12.8 34 10.2 SW 24 33 13 18 1015.5 - 0.0
29/01:30pm 29.7 26.0 12.6 35 10.1 SW 24 30 13 16 1015.7 - 0.0
29/01:00pm 30.5 26.4 8.7 25 12.1 WSW 20 26 11 14 1015.9 - 0.0
29/12:30pm 29.8 27.6 12.2 33 10.3 SW 15 20 8 11 1016.2 - 0.0
29/12:00pm 29.9 26.8 11.7 32 10.6 SW 19 22 10 12 1016.9 1016.8 0.0
29/11:30am 29.7 28.6 10.5 30 10.9 WSW 7 9 4 5 1017.4 - 0.0
29/11:00am 28.6 27.4 11.6 34 9.8 WNW 9 13 5 7 1017.9 - 0.0
29/10:30am 27.6 27.0 11.8 37 9.1 W 6 7 3 4 1018.3 - 0.0
29/10:00am 26.4 25.6 11.8 40 8.4 SSE 7 11 4 6 1018.4 - 0.0
29/09:30am 24.5 22.9 11.6 44 7.3 SE 11 17 6 9 1018.6 - 0.0
29/09:00am 22.4 21.2 11.7 50 6.0 ESE 9 13 5 7 1018.7 1018.7 0.0
29/08:30am 20.6 19.3 12.5 59 4.6 SE 11 15 6 8 1018.6 - 0.0
29/08:00am 18.7 17.8 12.6 67 3.4 ESE 9 11 5 6 1018.8 - 0.0
29/07:30am 16.8 16.0 12.9 78 2.2 SE 9 11 5 6 1018.5 - 0.0
29/07:00am 15.1 13.8 12.4 84 1.5 ESE 11 13 6 7 1018.4 - 0.0
29/06:30am 14.2 12.4 12.0 87 1.2 SE 13 15 7 8 1018.2 - 0.0
29/06:00am 13.7 12.3 12.3 91 0.8 SE 11 13 6 7 1018.0 1018.0 0.0
29/05:30am 13.4 12.0 12.1 92 0.7 SE 11 13 6 7 1017.9 - 0.0
29/05:00am 13.9 13.0 12.6 92 0.7 SE 9 11 5 6 1017.9 - 0.0
29/04:30am 14.3 14.1 12.9 91 0.8 ESE 6 7 3 4 1017.7 - 0.0
29/04:00am 14.6 13.1 13.0 90 0.9 SSE 13 13 7 7 1017.6 - 0.0
29/03:30am 15.3 13.8 13.2 87 1.2 SE 13 15 7 8 1017.6 - 0.0
29/03:00am 15.8 14.0 13.3 85 1.4 SE 15 17 8 9 1017.7 1017.6 0.0
29/02:30am 16.0 14.2 13.3 84 1.5 SE 15 19 8 10 1017.9 - 0.0
29/02:00am 16.0 14.3 13.5 85 1.4 SE 15 17 8 9 1018.0 - 0.0
29/01:30am 16.5 14.8 13.7 83 1.6 SE 15 20 8 11 1018.2 - 0.0
29/01:00am 16.8 15.2 13.8 82 1.7 SSE 15 19 8 10 1018.5 - 0.0
29/12:30am 17.5 14.6 14.0 80 2.0 SSE 22 26 12 14 1018.7 - 0.0
29/12:00am 18.0 15.5 14.0 77 2.3 SSE 20 24 11 13 1018.8 1018.8 0.0
 
Date/Time
WST
Temp
°C
App
Temp
°C
Dew
Point
Rel
Hum
%
Delta-T
°C
Wind Press
QNH
hPa
Press
MSL
hPa
Rain
since 9 am
mm
Dir
 
Spd
km/h
Gust
km/h
Spd
kts
Gust
kts
28/11:30pm 18.5 16.0 14.1 75 2.5 SSE 20 24 11 13 1019.0 - 0.0
28/11:00pm 18.8 17.2 14.9 78 2.3 SSE 17 24 9 13 1019.5 - 0.0
28/10:30pm 19.4 17.0 15.3 77 2.4 SSE 22 28 12 15 1019.2 - 0.0
28/10:00pm 19.6 18.1 16.8 84 1.7 SSE 20 26 11 14 1019.4 - 0.0
28/09:30pm 20.5 18.4 17.1 81 2.1 SSE 24 33 13 18 1019.6 - 0.0
28/09:00pm 20.8 19.1 17.2 80 2.2 SSE 22 32 12 17 1019.3 1019.3 0.0
28/08:30pm 21.0 19.3 17.3 79 2.3 SSE 22 30 12 16 1019.1 - 0.0
28/08:00pm 21.2 19.4 17.0 77 2.6 S 22 30 12 16 1018.8 - 0.0
28/07:30pm 21.4 19.7 17.3 77 2.5 S 22 30 12 16 1018.4 - 0.0
28/07:00pm 21.6 18.8 17.4 77 2.6 S 28 35 15 19 1017.7 - 0.0
28/06:30pm 22.0 19.6 17.3 74 2.9 S 26 35 14 19 1017.3 - 0.0
28/06:00pm 22.6 19.0 17.3 72 3.3 S 32 39 17 21 1017.2 1017.1 0.0
28/05:30pm 23.2 19.2 16.2 64 4.3 S 32 39 17 21 1017.2 - 0.0
28/05:00pm 24.1 20.4 15.9 60 5.0 S 30 37 16 20 1017.0 - 0.0
28/04:30pm 24.8 20.5 15.4 56 5.7 S 32 41 17 22 1017.0 - 0.0
28/04:00pm 25.8 21.5 15.4 52 6.3 S 32 41 17 22 1017.0 - 0.0
28/03:30pm 25.9 20.8 14.7 50 6.7 S 35 43 19 23 1017.0 - 0.0
28/03:00pm 26.7 21.5 14.6 47 7.3 S 35 44 19 24 1017.2 1017.1 0.0
28/02:30pm 26.4 21.8 15.0 49 6.9 SSW 33 43 18 23 1017.3 - 0.0
28/02:00pm 27.1 22.7 14.2 45 7.7 SSW 30 39 16 21 1017.6 - 0.0
28/01:30pm 27.0 22.5 15.5 49 7.0 SSW 33 43 18 23 1017.9 - 0.0
28/01:00pm 27.2 21.8 12.7 40 8.5 S 33 41 18 22 1018.2 - 0.0
28/12:30pm 26.8 22.0 13.9 45 7.7 S 32 43 17 23 1018.8 - 0.0
28/12:00pm 26.4 21.2 12.8 43 7.9 S 32 43 17 23 1019.3 1019.3 0.0
28/11:30am 25.7 20.4 11.4 40 8.1 S 30 41 16 22 1019.7 - 0.0

Other Formats:

Comma delimited format used in spreadsheet applications
http://www.bom.gov.au/fwo/IDW60801/IDW60801.94403.axf

JavaScript Object Notation format (JSON) in row-major order
http://www.bom.gov.au/fwo/IDW60801/IDW60801.94403.json